createdAt,value
2022-10-14T00:00:01.447Z,73.6
2022-10-14T00:05:01.329Z,73.0
2022-10-14T00:10:01.268Z,72.0
2022-10-14T00:15:01.331Z,72.6
2022-10-14T00:25:01.471Z,72.3
2022-10-14T00:30:01.253Z,71.4
2022-10-14T00:40:01.320Z,71.6
2022-10-14T00:45:01.723Z,71.2
2022-10-14T00:50:01.289Z,69.7
2022-10-14T00:55:01.830Z,68.8
2022-10-14T01:00:01.284Z,67.5
2022-10-14T01:20:01.189Z,63.2
2022-10-14T01:40:01.624Z,66.2
2022-10-14T01:45:01.458Z,65.9
2022-10-14T01:50:01.727Z,66.6
2022-10-14T01:55:01.759Z,67.2
2022-10-14T02:00:01.539Z,67.1
2022-10-14T02:05:01.498Z,67.5
2022-10-14T02:10:01.450Z,68.0
2022-10-14T02:30:01.160Z,72.0
2022-10-14T02:35:01.010Z,69.9
2022-10-14T02:40:00.932Z,70.1
2022-10-14T02:45:02.356Z,69.4
2022-10-14T02:50:05.976Z,70.8
2022-10-14T02:55:01.073Z,71.6
2022-10-14T03:00:00.995Z,72.6
2022-10-14T03:05:01.024Z,73.4
2022-10-14T03:10:01.019Z,75.3
2022-10-14T03:15:01.060Z,75.2
2022-10-14T03:20:01.234Z,74.9
2022-10-14T03:25:03.181Z,75.0
2022-10-14T03:30:01.038Z,73.8
2022-10-14T03:35:01.127Z,73.2
2022-10-14T03:40:02.027Z,72.9
2022-10-14T03:45:01.382Z,72.5
2022-10-14T03:50:01.364Z,72.7
2022-10-14T03:55:00.998Z,73.3
2022-10-14T04:00:01.315Z,73.3
2022-10-14T04:05:01.567Z,74.9
2022-10-14T04:10:01.015Z,75.3
2022-10-14T04:15:01.078Z,75.0
2022-10-14T04:20:00.936Z,74.7
2022-10-14T04:25:01.226Z,73.6
2022-10-14T04:30:01.037Z,72.5
2022-10-14T04:35:01.475Z,72.6
2022-10-14T04:40:01.064Z,73.1
2022-10-14T04:45:01.122Z,74.6
2022-10-14T04:50:01.022Z,80.8
2022-10-14T04:55:01.372Z,81.8
2022-10-14T05:00:01.023Z,82.8
2022-10-14T05:05:00.996Z,84.3
2022-10-14T05:10:01.061Z,85.2
2022-10-14T05:15:01.060Z,82.8
2022-10-14T05:20:00.935Z,82.4
2022-10-14T05:25:01.074Z,80.2
2022-10-14T05:30:01.312Z,78.6
2022-10-14T05:35:01.665Z,75.2
2022-10-14T05:40:01.040Z,72.5
2022-10-14T05:45:01.199Z,71.5
2022-10-14T05:50:01.024Z,72.8
2022-10-14T05:55:01.064Z,71.9
2022-10-14T06:00:01.390Z,74.3
2022-10-14T06:05:01.381Z,77.5
2022-10-14T06:10:01.378Z,79.8
2022-10-14T06:15:01.089Z,81.5
2022-10-14T06:20:00.947Z,83.2
2022-10-14T06:25:04.829Z,85.1
2022-10-14T06:30:01.360Z,86.9
2022-10-14T06:35:01.113Z,88.1
2022-10-14T06:40:01.069Z,84.1
2022-10-14T06:45:01.233Z,89.1
2022-10-14T06:50:01.117Z,85.8
2022-10-14T06:55:01.128Z,81.0
2022-10-14T07:00:00.944Z,77.3
2022-10-14T07:05:01.403Z,79.7
2022-10-14T07:10:01.313Z,75.2
2022-10-14T07:15:02.169Z,77.0
2022-10-14T07:20:06.051Z,77.5
2022-10-14T07:25:06.057Z,79.0
2022-10-14T07:30:00.938Z,83.5
2022-10-14T07:35:01.161Z,83.2
2022-10-14T07:40:00.961Z,84.0
2022-10-14T07:45:01.135Z,87.0
2022-10-14T07:50:01.260Z,86.1
2022-10-14T07:55:01.098Z,81.8
2022-10-14T08:00:01.040Z,79.0
2022-10-14T08:30:01.192Z,75.4
2022-10-14T08:35:01.095Z,75.8
2022-10-14T08:40:00.957Z,76.9
2022-10-14T08:45:01.101Z,78.8
2022-10-14T08:50:01.090Z,78.6
2022-10-14T08:55:01.075Z,77.5
2022-10-14T09:00:00.961Z,76.9
2022-10-14T09:05:07.172Z,77.4
2022-10-14T09:10:01.063Z,73.5
2022-10-14T09:15:01.076Z,69.4
2022-10-14T09:20:01.150Z,66.6
2022-10-14T09:25:02.281Z,68.2
2022-10-14T09:30:01.009Z,64.0
2022-10-14T09:35:01.004Z,64.4
2022-10-14T09:40:01.182Z,65.3
2022-10-14T09:45:01.169Z,65.7
2022-10-14T09:50:00.931Z,61.8
2022-10-14T09:55:01.415Z,64.0
2022-10-14T10:00:01.337Z,61.0
2022-10-14T10:05:01.152Z,59.2
2022-10-14T10:20:01.095Z,56.4
2022-10-14T10:25:01.465Z,56.5
2022-10-14T10:30:00.904Z,56.1
2022-10-14T10:50:01.572Z,47.6
2022-10-14T10:55:02.097Z,46.8
2022-10-14T11:00:01.344Z,47.9
2022-10-14T11:05:01.606Z,47.6
2022-10-14T11:10:01.422Z,47.6
2022-10-14T11:15:01.454Z,47.4
2022-10-14T11:20:01.316Z,47.6
2022-10-14T11:25:01.446Z,46.7
2022-10-14T11:30:01.423Z,46.6
2022-10-14T11:35:01.448Z,45.9
2022-10-14T11:50:01.205Z,46.6
2022-10-14T11:55:01.199Z,45.4
2022-10-14T12:00:01.336Z,44.2
2022-10-14T12:05:01.093Z,45.0
2022-10-14T12:10:01.222Z,44.3
2022-10-14T12:15:02.250Z,43.4
2022-10-14T12:20:01.157Z,43.3
2022-10-14T12:25:02.340Z,43.6
2022-10-14T12:30:01.114Z,42.7
2022-10-14T12:35:01.151Z,43.3
2022-10-14T12:50:06.714Z,90.4
2022-10-14T13:10:01.285Z,44.4
2022-10-14T13:30:01.692Z,48.0
2022-10-14T13:50:02.957Z,47.0
2022-10-14T13:55:01.797Z,47.0
2022-10-14T14:20:01.292Z,47.6
2022-10-14T14:30:01.177Z,47.1
2022-10-14T14:35:01.206Z,47.1
2022-10-14T14:40:01.178Z,46.8
2022-10-14T14:45:01.164Z,46.7
2022-10-14T14:55:01.148Z,46.0
2022-10-14T15:00:01.388Z,45.6
2022-10-14T15:05:01.401Z,46.2
2022-10-14T15:10:01.398Z,45.4
2022-10-14T15:20:01.702Z,45.9
2022-10-14T15:40:01.105Z,51.8
2022-10-14T15:45:00.996Z,52.1
2022-10-14T15:50:00.844Z,52.8
2022-10-14T15:55:01.869Z,51.7
2022-10-14T16:10:01.589Z,51.0
2022-10-14T16:15:01.421Z,82.0
2022-10-14T16:20:01.341Z,72.0
2022-10-14T16:25:01.396Z,67.6
2022-10-14T16:30:01.556Z,65.4
2022-10-14T16:35:01.452Z,66.9
2022-10-14T16:40:01.455Z,58.6
2022-10-14T16:45:01.570Z,62.2
2022-10-14T16:50:01.337Z,64.7
2022-10-14T16:55:01.443Z,66.6
2022-10-14T17:00:01.334Z,65.8
2022-10-14T17:05:01.390Z,63.8
2022-10-14T17:10:01.365Z,61.2
2022-10-14T17:20:01.591Z,58.4
2022-10-14T17:25:01.379Z,61.4
2022-10-14T17:30:01.341Z,62.3
2022-10-14T17:35:02.537Z,66.0
2022-10-14T17:40:01.258Z,67.0
2022-10-14T17:45:01.331Z,69.5
2022-10-14T17:50:01.339Z,71.4
2022-10-14T17:55:01.960Z,73.2
2022-10-14T18:00:01.380Z,74.1
2022-10-14T18:05:01.443Z,78.2
2022-10-14T18:10:06.339Z,92.4
2022-10-14T18:15:01.442Z,95.0
2022-10-14T18:20:01.262Z,93.2
2022-10-14T18:25:03.575Z,90.3
2022-10-14T18:30:01.472Z,85.8
2022-10-14T18:35:01.462Z,69.9
2022-10-14T18:40:06.262Z,65.5
2022-10-14T18:45:01.958Z,67.2
2022-10-14T18:50:04.482Z,67.1
2022-10-14T18:55:01.449Z,80.5
2022-10-14T19:00:01.629Z,82.1
2022-10-14T19:05:01.719Z,83.2
2022-10-14T19:10:01.340Z,83.6
2022-10-14T19:15:02.427Z,85.5
2022-10-14T19:20:01.610Z,77.0
2022-10-14T19:25:01.810Z,75.9
2022-10-14T19:30:01.380Z,73.8
2022-10-14T19:35:01.432Z,71.1
2022-10-14T19:40:01.398Z,68.2
2022-10-14T19:45:01.489Z,62.0
2022-10-14T19:55:02.676Z,60.4
2022-10-14T20:00:01.335Z,60.3
2022-10-14T20:05:01.492Z,61.0
2022-10-14T20:10:03.545Z,64.4
2022-10-14T20:15:01.617Z,67.3
2022-10-14T20:20:01.369Z,69.9
2022-10-14T20:25:01.447Z,73.3
2022-10-14T20:30:01.325Z,75.7
2022-10-14T20:35:02.461Z,75.5
2022-10-14T20:40:01.322Z,77.4
2022-10-14T20:45:06.655Z,74.6
2022-10-14T20:50:01.303Z,76.1
2022-10-14T20:55:01.811Z,72.8
2022-10-14T21:00:06.586Z,69.6
2022-10-14T21:05:02.413Z,65.6
2022-10-14T21:10:02.302Z,67.0
2022-10-14T21:15:02.134Z,61.8
2022-10-14T21:20:01.279Z,63.2
2022-10-14T21:25:01.397Z,63.7
2022-10-14T21:30:01.341Z,64.4
2022-10-14T21:35:01.516Z,71.4
2022-10-14T21:40:01.571Z,72.3
2022-10-14T21:45:01.447Z,71.1
2022-10-14T21:50:01.420Z,72.6
2022-10-14T22:00:03.416Z,66.1
2022-10-14T22:05:01.588Z,68.8
2022-10-14T22:10:01.655Z,72.0
2022-10-14T22:20:01.378Z,67.2
2022-10-14T22:25:10.122Z,64.3
2022-10-14T22:30:02.463Z,60.0
2022-10-14T22:35:01.399Z,56.3
2022-10-14T22:40:01.380Z,57.0
2022-10-14T22:45:02.416Z,56.3
2022-10-14T22:50:01.414Z,57.1
2022-10-14T22:55:01.457Z,57.2
2022-10-14T23:00:01.398Z,57.4
2022-10-14T23:05:01.391Z,57.8
2022-10-14T23:10:01.413Z,57.0
2022-10-14T23:20:01.422Z,56.2
2022-10-14T23:25:02.032Z,54.7
2022-10-14T23:30:01.372Z,59.3
2022-10-14T23:35:01.404Z,58.0
2022-10-14T23:40:01.425Z,58.6
2022-10-14T23:45:01.352Z,59.6
2022-10-14T23:50:06.328Z,61.3
2022-10-14T23:55:01.393Z,58.4
